Time;durP1;ratioP1;P1;durP2;ratioP2;P2;SDS_P1;SDS_P2;PMS_P1;PMS_P2;Temp;Humidity;BMP_temperature;BMP_pressure;BME280_temperature;BME280_humidity;BME280_pressure;Samples;Min_cycle;Max_cycle;Signal;HPM_P1;HPM_P2
2022/10/11 00:02:01;;;;;;;8.20;5.27;;;;;;;;;;5028814;28;20299;-75
2022/10/11 00:04:26;;;;;;;9.00;4.27;;;;;;;;;;5045317;28;20188;-75
2022/10/11 00:06:51;;;;;;;7.53;4.37;;;;;;;;;;5045853;28;20238;-75
2022/10/11 00:09:17;;;;;;;5.83;4.20;;;;;;;;;;5044378;28;20193;-75
2022/10/11 00:11:42;;;;;;;11.03;5.30;;;;;;;;;;5028950;28;20180;-75
2022/10/11 00:14:07;;;;;;;8.33;6.03;;;;;;;;;;5028709;28;20274;-76
2022/10/11 00:16:33;;;;;;;8.13;5.50;;;;;;;;;;5029579;28;20177;-76
2022/10/11 00:18:58;;;;;;;10.13;5.50;;;;;;;;;;5030822;28;20236;-76
2022/10/11 00:21:23;;;;;;;11.43;5.87;;;;;;;;;;5025512;28;20212;-75
2022/10/11 00:23:49;;;;;;;13.47;7.23;;;;;;;;;;5044893;28;20245;-76
2022/10/11 00:26:14;;;;;;;6.97;6.27;;;;;;;;;;5030965;28;20209;-76
2022/10/11 00:28:40;;;;;;;10.53;6.23;;;;;;;;;;5028180;28;20204;-76
2022/10/11 00:31:13;;;;;;;10.10;7.23;;;;;;;;;;5028145;28;20199;-76
2022/10/11 00:33:39;;;;;;;13.03;6.80;;;;;;;;;;5027121;28;20179;-76
2022/10/11 00:36:04;;;;;;;12.37;6.67;;;;;;;;;;5038171;28;20236;-76
2022/10/11 00:38:29;;;;;;;11.60;6.60;;;;;;;;;;5028230;28;20183;-76
2022/10/11 00:40:55;;;;;;;9.43;6.60;;;;;;;;;;5028604;28;20279;-76
2022/10/11 00:43:22;;;;;;;9.13;6.90;;;;;;;;;;5044987;28;20193;-75
2022/10/11 00:45:56;;;;;;;9.00;6.43;;;;;;;;;;5028419;28;20215;-76
2022/10/11 00:48:33;;;;;;;10.63;7.27;;;;;;;;;;5044979;28;20229;-75
2022/10/11 00:51:01;;;;;;;10.77;7.43;;;;;;;;;;5025393;28;20186;-75
2022/10/11 00:53:27;;;;;;;11.27;8.50;;;;;;;;;;5049672;28;20191;-76
2022/10/11 00:55:57;;;;;;;14.13;7.70;;;;;;;;;;5028706;28;20193;-76
2022/10/11 00:58:23;;;;;;;13.57;9.33;;;;;;;;;;5030430;28;20190;-75
2022/10/11 01:00:48;;;;;;;11.87;8.87;;;;;;;;;;5042267;28;20186;-77
2022/10/11 01:03:15;;;;;;;12.10;8.57;;;;;;;;;;5025739;28;20180;-76
2022/10/11 01:05:40;;;;;;;14.93;10.10;;;;;;;;;;5024365;28;20217;-76
2022/10/11 01:08:06;;;;;;;16.17;10.90;;;;;;;;;;5030434;28;20253;-76
2022/10/11 01:10:31;;;;;;;13.87;9.87;;;;;;;;;;5020775;28;20182;-75
2022/10/11 01:13:05;;;;;;;13.90;9.63;;;;;;;;;;5026655;28;20392;-76
2022/10/11 01:15:33;;;;;;;13.30;9.67;;;;;;;;;;5023570;28;20188;-76
2022/10/11 01:18:05;;;;;;;10.40;9.20;;;;;;;;;;5028853;28;20177;-76
2022/10/11 01:20:41;;;;;;;14.67;9.57;;;;;;;;;;5027724;28;20186;-76
2022/10/11 01:23:24;;;;;;;13.33;9.40;;;;;;;;;;5028646;28;20179;-75
2022/10/11 01:26:04;;;;;;;12.07;8.90;;;;;;;;;;5028094;28;20194;-75
2022/10/11 01:28:41;;;;;;;13.90;8.93;;;;;;;;;;5027861;28;20231;-75
2022/10/11 01:31:13;;;;;;;15.23;9.10;;;;;;;;;;5024678;28;20176;-76
2022/10/11 01:33:40;;;;;;;16.40;11.23;;;;;;;;;;5026543;28;20193;-76
2022/10/11 01:36:17;;;;;;;12.63;10.13;;;;;;;;;;5027991;28;20183;-76
2022/10/11 01:38:50;;;;;;;11.10;8.90;;;;;;;;;;5023673;28;20180;-76
2022/10/11 01:41:20;;;;;;;14.93;10.57;;;;;;;;;;5028976;28;20243;-75
2022/10/11 01:43:46;;;;;;;11.80;9.63;;;;;;;;;;5028095;28;20210;-76
2022/10/11 01:46:11;;;;;;;16.00;8.67;;;;;;;;;;5027328;28;20247;-76
2022/10/11 01:48:51;;;;;;;15.63;10.23;;;;;;;;;;5026112;28;20226;-75
2022/10/11 01:51:18;;;;;;;11.57;9.43;;;;;;;;;;5027028;28;20183;-75
2022/10/11 01:53:55;;;;;;;14.90;10.17;;;;;;;;;;5027746;28;20185;-76
2022/10/11 01:56:21;;;;;;;15.03;11.20;;;;;;;;;;5026892;28;20179;-76
2022/10/11 01:59:05;;;;;;;19.17;12.27;;;;;;;;;;5029050;28;20189;-75
2022/10/11 02:01:35;;;;;;;18.10;13.00;;;;;;;;;;5046501;28;20206;-75
2022/10/11 02:04:05;;;;;;;19.00;13.27;;;;;;;;;;5025906;28;20209;-75
2022/10/11 02:06:37;;;;;;;14.43;11.00;;;;;;;;;;5032814;28;20268;-76
2022/10/11 02:09:24;;;;;;;17.13;11.53;;;;;;;;;;5029325;28;20207;-75
2022/10/11 02:11:52;;;;;;;19.80;12.40;;;;;;;;;;5029943;28;20232;-75
2022/10/11 02:14:19;;;;;;;14.10;11.27;;;;;;;;;;5030302;28;20186;-75
2022/10/11 02:16:45;;;;;;;18.27;13.10;;;;;;;;;;5048138;28;20176;-75
2022/10/11 02:19:13;;;;;;;15.60;11.87;;;;;;;;;;5025525;28;20277;-76
2022/10/11 02:21:41;;;;;;;18.50;11.93;;;;;;;;;;5035968;28;20213;-75
2022/10/11 02:24:17;;;;;;;18.87;12.93;;;;;;;;;;5027325;28;20178;-76
2022/10/11 02:26:44;;;;;;;20.37;14.57;;;;;;;;;;5032410;28;20206;-76
2022/10/11 02:29:11;;;;;;;22.13;13.20;;;;;;;;;;5045802;28;20186;-76
2022/10/11 02:31:37;;;;;;;18.47;14.03;;;;;;;;;;5033154;28;20180;-75
2022/10/11 02:34:11;;;;;;;21.37;13.33;;;;;;;;;;5031230;28;20205;-76
2022/10/11 02:36:41;;;;;;;20.23;14.03;;;;;;;;;;5024579;28;20244;-76
2022/10/11 02:39:12;;;;;;;18.80;13.87;;;;;;;;;;5029324;28;20194;-75
2022/10/11 02:41:38;;;;;;;18.50;13.10;;;;;;;;;;5031252;28;20183;-76
2022/10/11 02:44:09;;;;;;;21.37;14.33;;;;;;;;;;5032042;28;20186;-76
2022/10/11 02:46:36;;;;;;;21.03;15.27;;;;;;;;;;5032824;28;20209;-76
2022/10/11 02:49:01;;;;;;;21.40;14.67;;;;;;;;;;5031015;28;20300;-76
2022/10/11 02:51:30;;;;;;;24.53;15.67;;;;;;;;;;5029177;28;20192;-75
2022/10/11 02:53:55;;;;;;;24.93;18.23;;;;;;;;;;5031844;28;20186;-75
2022/10/11 02:56:21;;;;;;;32.53;19.00;;;;;;;;;;5029404;28;20186;-76
2022/10/11 02:58:46;;;;;;;24.83;15.63;;;;;;;;;;5031959;28;20245;-76
2022/10/11 03:01:12;;;;;;;28.57;18.07;;;;;;;;;;5024764;28;20271;-75
2022/10/11 03:03:38;;;;;;;26.03;17.20;;;;;;;;;;5023427;28;20246;-75
2022/10/11 03:06:03;;;;;;;33.47;19.10;;;;;;;;;;5030037;28;20298;-76
2022/10/11 03:08:28;;;;;;;28.97;15.53;;;;;;;;;;5028838;28;20184;-76
2022/10/11 03:10:54;;;;;;;23.90;15.97;;;;;;;;;;5034923;28;20280;-75
2022/10/11 03:13:19;;;;;;;22.93;17.43;;;;;;;;;;5023925;28;20173;-76
2022/10/11 03:15:48;;;;;;;22.83;15.83;;;;;;;;;;5031778;28;20225;-75
2022/10/11 03:18:13;;;;;;;24.10;15.60;;;;;;;;;;5029571;28;20182;-75
2022/10/11 03:20:39;;;;;;;23.87;15.93;;;;;;;;;;5027030;28;20267;-76
2022/10/11 03:23:04;;;;;;;21.53;15.07;;;;;;;;;;5028183;28;20276;-76
2022/10/11 03:25:29;;;;;;;22.77;16.20;;;;;;;;;;5029964;28;20180;-76
2022/10/11 03:27:54;;;;;;;23.27;15.30;;;;;;;;;;5031030;28;20239;-76
2022/10/11 03:30:20;;;;;;;23.37;16.43;;;;;;;;;;5029856;28;20210;-76
2022/10/11 03:32:45;;;;;;;22.73;14.17;;;;;;;;;;5029170;28;20267;-76
2022/10/11 03:35:10;;;;;;;25.63;15.13;;;;;;;;;;5028629;28;20209;-76
2022/10/11 03:37:35;;;;;;;21.30;14.97;;;;;;;;;;5029408;28;20174;-75
2022/10/11 03:40:02;;;;;;;24.70;16.53;;;;;;;;;;5028555;28;20191;-75
2022/10/11 03:42:27;;;;;;;25.70;15.37;;;;;;;;;;5031201;28;20175;-76
2022/10/11 03:44:53;;;;;;;21.63;16.40;;;;;;;;;;5030978;28;20240;-75
2022/10/11 03:47:18;;;;;;;29.10;15.67;;;;;;;;;;5023114;28;20209;-75
2022/10/11 03:49:44;;;;;;;22.63;16.30;;;;;;;;;;5031326;28;20226;-75
2022/10/11 03:52:09;;;;;;;22.03;16.17;;;;;;;;;;5029192;28;20265;-75
2022/10/11 03:54:34;;;;;;;24.83;16.37;;;;;;;;;;5045015;28;20216;-75
2022/10/11 03:57:00;;;;;;;24.67;14.33;;;;;;;;;;5031697;28;20210;-76
2022/10/11 03:59:25;;;;;;;24.60;17.30;;;;;;;;;;5030586;28;20202;-75
2022/10/11 04:01:50;;;;;;;22.80;16.60;;;;;;;;;;5028155;28;20201;-75
2022/10/11 04:04:15;;;;;;;25.40;16.80;;;;;;;;;;5029875;28;20211;-75
2022/10/11 04:06:40;;;;;;;19.73;14.10;;;;;;;;;;5028506;28;20584;-75
2022/10/11 04:09:06;;;;;;;22.87;16.53;;;;;;;;;;5029802;28;20228;-76
2022/10/11 04:11:31;;;;;;;27.67;17.33;;;;;;;;;;5030169;28;20203;-75
2022/10/11 04:13:56;;;;;;;23.30;14.50;;;;;;;;;;5030188;28;20181;-75
2022/10/11 04:16:22;;;;;;;29.90;16.27;;;;;;;;;;5028360;28;20264;-76
2022/10/11 04:18:47;;;;;;;28.20;15.80;;;;;;;;;;5027854;28;20191;-76
2022/10/11 04:21:12;;;;;;;28.50;19.90;;;;;;;;;;5030129;28;20220;-76
2022/10/11 04:23:37;;;;;;;21.90;15.93;;;;;;;;;;5028256;28;20175;-75
2022/10/11 04:26:04;;;;;;;26.43;17.53;;;;;;;;;;5029693;28;20292;-75
2022/10/11 04:28:29;;;;;;;24.07;14.77;;;;;;;;;;5031271;28;20195;-75
2022/10/11 04:30:54;;;;;;;25.60;17.40;;;;;;;;;;5028893;28;20203;-76
2022/10/11 04:33:19;;;;;;;26.07;15.97;;;;;;;;;;5028756;28;20180;-75
2022/10/11 04:35:45;;;;;;;26.13;16.37;;;;;;;;;;5030674;28;20175;-75
2022/10/11 04:38:10;;;;;;;24.03;15.57;;;;;;;;;;5021561;28;20186;-75
2022/10/11 04:40:35;;;;;;;27.60;17.80;;;;;;;;;;5025972;28;20170;-75
2022/10/11 04:43:01;;;;;;;23.73;15.50;;;;;;;;;;5026533;28;20271;-76
2022/10/11 04:45:26;;;;;;;25.53;16.10;;;;;;;;;;5028803;28;20175;-76
2022/10/11 04:47:51;;;;;;;21.93;15.93;;;;;;;;;;5028613;28;20214;-75
2022/10/11 04:50:17;;;;;;;23.50;15.83;;;;;;;;;;5027534;28;20211;-76
2022/10/11 04:52:42;;;;;;;29.50;15.40;;;;;;;;;;5027513;28;20175;-75
2022/10/11 04:55:07;;;;;;;24.53;15.53;;;;;;;;;;5029720;28;20209;-75
2022/10/11 04:57:32;;;;;;;21.53;15.13;;;;;;;;;;5028070;28;20240;-75
2022/10/11 04:59:58;;;;;;;23.20;16.10;;;;;;;;;;5028265;28;20196;-76
2022/10/11 05:02:23;;;;;;;22.47;15.87;;;;;;;;;;5028356;28;20184;-75
2022/10/11 05:04:48;;;;;;;22.13;16.10;;;;;;;;;;5027854;28;20193;-75
2022/10/11 05:07:13;;;;;;;24.60;17.37;;;;;;;;;;5028383;28;20244;-76
2022/10/11 05:09:38;;;;;;;22.30;15.17;;;;;;;;;;5028659;28;20176;-75
2022/10/11 05:12:04;;;;;;;24.53;16.07;;;;;;;;;;5024450;28;20182;-75
2022/10/11 05:14:29;;;;;;;24.43;16.00;;;;;;;;;;5026448;28;20174;-75
2022/10/11 05:16:54;;;;;;;26.97;17.20;;;;;;;;;;5039702;28;20214;-75
2022/10/11 05:19:19;;;;;;;22.67;15.00;;;;;;;;;;5026859;28;20174;-75
2022/10/11 05:21:45;;;;;;;20.03;14.83;;;;;;;;;;5021365;28;20185;-76
2022/10/11 05:24:10;;;;;;;23.60;14.27;;;;;;;;;;5027119;28;20189;-75
2022/10/11 05:26:35;;;;;;;20.87;14.33;;;;;;;;;;5016460;28;20288;-76
2022/10/11 05:29:00;;;;;;;22.83;16.40;;;;;;;;;;5026449;28;20182;-75
2022/10/11 05:31:26;;;;;;;24.47;17.63;;;;;;;;;;5023975;28;20177;-76
2022/10/11 05:33:51;;;;;;;22.67;14.90;;;;;;;;;;5024560;28;20208;-75
2022/10/11 05:36:16;;;;;;;22.70;16.10;;;;;;;;;;5022968;28;20469;-75
2022/10/11 05:38:41;;;;;;;28.13;17.30;;;;;;;;;;5028518;28;21850;-76
2022/10/11 05:41:10;;;;;;;21.40;14.63;;;;;;;;;;5040633;28;20189;-76
2022/10/11 05:43:35;;;;;;;24.90;15.87;;;;;;;;;;5024637;28;20180;-76
2022/10/11 05:46:00;;;;;;;24.73;16.90;;;;;;;;;;5030790;28;20205;-76
2022/10/11 05:48:27;;;;;;;25.67;17.83;;;;;;;;;;5022905;28;20331;-75
2022/10/11 05:50:56;;;;;;;37.30;16.50;;;;;;;;;;5028308;28;20192;-76
2022/10/11 05:53:22;;;;;;;25.07;16.93;;;;;;;;;;5024058;28;20182;-76
2022/10/11 05:55:47;;;;;;;19.83;15.20;;;;;;;;;;5019199;28;20197;-76
2022/10/11 05:58:13;;;;;;;22.80;16.63;;;;;;;;;;5046116;28;20176;-75
2022/10/11 06:00:38;;;;;;;22.17;17.03;;;;;;;;;;5030727;28;20177;-76
2022/10/11 06:03:09;;;;;;;19.57;14.63;;;;;;;;;;5022278;28;20579;-76
2022/10/11 06:05:35;;;;;;;24.17;17.50;;;;;;;;;;5047276;28;20179;-75
2022/10/11 06:08:00;;;;;;;20.70;16.30;;;;;;;;;;5031883;28;20211;-75
2022/10/11 06:10:25;;;;;;;22.27;15.23;;;;;;;;;;5025090;28;20198;-75
2022/10/11 06:12:51;;;;;;;25.17;18.10;;;;;;;;;;5028164;28;20182;-75
2022/10/11 06:15:16;;;;;;;23.10;16.20;;;;;;;;;;5030459;28;20174;-76
2022/10/11 06:17:42;;;;;;;27.20;17.60;;;;;;;;;;5019750;28;20190;-75
2022/10/11 06:20:08;;;;;;;24.37;16.83;;;;;;;;;;5038983;28;20277;-75
2022/10/11 06:22:34;;;;;;;25.83;18.30;;;;;;;;;;5026299;28;20184;-75
2022/10/11 06:24:59;;;;;;;24.10;15.87;;;;;;;;;;5028503;28;20191;-75
2022/10/11 06:27:24;;;;;;;27.43;19.10;;;;;;;;;;5032584;28;20264;-75
2022/10/11 06:29:49;;;;;;;36.73;15.60;;;;;;;;;;5039331;28;20595;-76
2022/10/11 06:32:15;;;;;;;27.43;16.60;;;;;;;;;;5028543;28;20182;-75
2022/10/11 06:34:40;;;;;;;37.87;18.63;;;;;;;;;;5034538;28;20182;-76
2022/10/11 06:37:06;;;;;;;24.07;16.33;;;;;;;;;;5032302;28;20190;-76
2022/10/11 06:39:31;;;;;;;21.90;16.33;;;;;;;;;;5032365;28;20265;-76
2022/10/11 06:41:56;;;;;;;31.27;16.67;;;;;;;;;;5037476;28;20183;-75
2022/10/11 06:44:21;;;;;;;26.47;17.27;;;;;;;;;;5031422;28;20200;-75
2022/10/11 06:46:46;;;;;;;50.63;18.37;;;;;;;;;;5031397;28;20204;-75
2022/10/11 06:49:12;;;;;;;34.73;17.67;;;;;;;;;;5029029;28;20226;-76
2022/10/11 06:51:37;;;;;;;29.80;18.90;;;;;;;;;;5031029;28;20178;-75
2022/10/11 06:54:02;;;;;;;27.57;16.83;;;;;;;;;;5035403;28;20289;-75
2022/10/11 06:56:28;;;;;;;40.37;19.73;;;;;;;;;;5032091;28;20175;-75
2022/10/11 06:58:55;;;;;;;40.53;18.97;;;;;;;;;;5032295;28;20186;-75
2022/10/11 07:01:22;;;;;;;25.60;16.43;;;;;;;;;;5031153;28;20246;-75
2022/10/11 07:03:48;;;;;;;25.63;17.27;;;;;;;;;;5032199;28;20186;-75
2022/10/11 07:06:14;;;;;;;24.43;17.27;;;;;;;;;;5028388;28;20206;-75
2022/10/11 07:08:39;;;;;;;43.20;18.83;;;;;;;;;;5027989;28;20185;-76
2022/10/11 07:11:06;;;;;;;31.63;18.97;;;;;;;;;;5048680;28;20183;-75
2022/10/11 07:13:31;;;;;;;22.27;15.47;;;;;;;;;;5025783;28;20178;-76
2022/10/11 07:15:59;;;;;;;28.10;18.40;;;;;;;;;;5032157;28;20186;-75
2022/10/11 07:18:24;;;;;;;36.37;19.40;;;;;;;;;;5031726;28;20174;-75
2022/10/11 07:20:49;;;;;;;20.97;15.47;;;;;;;;;;5028502;28;20377;-76
2022/10/11 07:23:14;;;;;;;23.57;16.83;;;;;;;;;;5028825;28;20208;-76
2022/10/11 07:25:40;;;;;;;22.47;17.07;;;;;;;;;;5030090;28;20226;-76
2022/10/11 07:28:05;;;;;;;25.83;17.77;;;;;;;;;;5035950;28;20175;-75
2022/10/11 07:30:30;;;;;;;21.27;16.33;;;;;;;;;;5031891;28;20186;-75
2022/10/11 07:32:55;;;;;;;26.00;18.17;;;;;;;;;;5031827;28;20179;-76
2022/10/11 07:35:20;;;;;;;24.30;16.27;;;;;;;;;;5048736;28;20268;-75
2022/10/11 07:37:46;;;;;;;22.57;17.07;;;;;;;;;;5027147;28;20268;-75
2022/10/11 07:40:11;;;;;;;26.87;18.43;;;;;;;;;;5025188;28;20192;-76
2022/10/11 07:42:36;;;;;;;26.47;19.70;;;;;;;;;;5029010;28;20183;-76
2022/10/11 07:45:02;;;;;;;27.17;19.03;;;;;;;;;;5033798;28;20212;-75
2022/10/11 07:47:27;;;;;;;29.30;18.87;;;;;;;;;;5032307;28;20255;-75
2022/10/11 07:49:52;;;;;;;23.53;16.33;;;;;;;;;;5032572;28;20318;-75
2022/10/11 07:52:17;;;;;;;29.27;18.13;;;;;;;;;;5030359;28;20206;-75
2022/10/11 07:54:43;;;;;;;25.57;18.53;;;;;;;;;;5033010;28;20194;-75
2022/10/11 07:57:08;;;;;;;25.23;18.10;;;;;;;;;;5031207;28;20220;-75
2022/10/11 07:59:33;;;;;;;24.80;17.57;;;;;;;;;;5031222;28;20188;-76
2022/10/11 08:01:59;;;;;;;38.37;19.17;;;;;;;;;;5031368;28;20266;-75
2022/10/11 08:04:25;;;;;;;35.90;19.97;;;;;;;;;;5028749;28;20246;-75
2022/10/11 08:06:50;;;;;;;26.30;18.70;;;;;;;;;;5030475;28;20205;-75
2022/10/11 08:09:15;;;;;;;89.83;23.07;;;;;;;;;;5031501;28;20175;-75
2022/10/11 08:11:40;;;;;;;27.60;19.13;;;;;;;;;;5029847;28;20173;-75
2022/10/11 08:14:07;;;;;;;30.47;18.60;;;;;;;;;;5030206;28;20536;-76
2022/10/11 08:16:33;;;;;;;25.57;17.73;;;;;;;;;;5029532;28;20212;-76
2022/10/11 08:18:59;;;;;;;91.87;22.70;;;;;;;;;;5033851;28;20179;-75
2022/10/11 08:21:25;;;;;;;34.83;17.83;;;;;;;;;;5025827;28;20266;-76
2022/10/11 08:23:50;;;;;;;21.53;16.57;;;;;;;;;;5029108;28;20273;-75
2022/10/11 08:26:16;;;;;;;22.93;16.37;;;;;;;;;;5031356;28;20341;-75
2022/10/11 08:28:41;;;;;;;55.43;17.17;;;;;;;;;;5030519;28;20179;-75
2022/10/11 08:31:09;;;;;;;47.30;20.87;;;;;;;;;;5029109;28;20182;-75
2022/10/11 08:33:34;;;;;;;20.00;14.67;;;;;;;;;;5030647;28;20167;-76
2022/10/11 08:36:02;;;;;;;54.00;17.23;;;;;;;;;;5031969;28;20183;-75
2022/10/11 08:38:27;;;;;;;50.37;16.47;;;;;;;;;;5047291;28;20171;-75
2022/10/11 08:40:54;;;;;;;53.50;18.57;;;;;;;;;;5029872;28;20184;-77
2022/10/11 08:43:43;;;;;;;106.90;21.50;;;;;;;;;;5028889;28;20179;-75
2022/10/11 08:46:12;;;;;;;39.70;16.33;;;;;;;;;;5031068;28;20205;-75
2022/10/11 08:48:40;;;;;;;24.10;15.97;;;;;;;;;;5032768;28;20248;-75
2022/10/11 08:51:25;;;;;;;52.20;16.87;;;;;;;;;;5027205;28;20188;-76
2022/10/11 08:54:05;;;;;;;78.30;19.43;;;;;;;;;;5029666;28;20217;-76
2022/10/11 08:56:33;;;;;;;59.50;17.17;;;;;;;;;;5028368;28;20335;-75
2022/10/11 08:58:59;;;;;;;108.47;21.27;;;;;;;;;;5027726;28;20179;-75
2022/10/11 09:01:25;;;;;;;23.93;15.27;;;;;;;;;;5029937;28;20243;-75
2022/10/11 09:03:50;;;;;;;23.70;17.00;;;;;;;;;;5025872;28;20189;-76
2022/10/11 09:06:22;;;;;;;29.87;19.47;;;;;;;;;;5028142;28;20210;-75
2022/10/11 09:08:47;;;;;;;24.03;16.17;;;;;;;;;;5029033;28;20181;-76
2022/10/11 09:11:18;;;;;;;21.47;15.73;;;;;;;;;;5028369;28;20178;-75
2022/10/11 09:13:51;;;;;;;28.87;17.73;;;;;;;;;;5028075;28;20181;-76
2022/10/11 09:16:29;;;;;;;25.20;16.13;;;;;;;;;;5026507;28;20179;-75
2022/10/11 09:19:12;;;;;;;28.40;18.73;;;;;;;;;;5030327;28;20562;-75
2022/10/11 09:21:48;;;;;;;36.47;17.17;;;;;;;;;;5036932;28;20185;-76
2022/10/11 09:24:16;;;;;;;22.90;15.80;;;;;;;;;;5028629;28;20297;-75
2022/10/11 09:26:55;;;;;;;39.10;17.67;;;;;;;;;;5030285;28;20213;-75
2022/10/11 09:29:39;;;;;;;27.90;16.43;;;;;;;;;;5024561;28;20174;-75
2022/10/11 09:32:11;;;;;;;31.60;16.10;;;;;;;;;;5028572;28;20196;-75
2022/10/11 09:34:36;;;;;;;24.97;17.53;;;;;;;;;;5037371;28;20596;-76
2022/10/11 09:37:20;;;;;;;24.97;17.63;;;;;;;;;;5026685;28;20182;-76
2022/10/11 09:40:06;;;;;;;25.60;18.30;;;;;;;;;;5022776;28;20245;-76
2022/10/11 09:42:31;;;;;;;23.17;16.73;;;;;;;;;;5001369;28;20187;-76
2022/10/11 09:44:58;;;;;;;26.20;17.10;;;;;;;;;;5028430;28;20184;-76
2022/10/11 09:47:26;;;;;;;24.17;16.07;;;;;;;;;;5028463;28;20216;-76
2022/10/11 09:50:15;;;;;;;29.47;17.80;;;;;;;;;;5026610;28;20237;-75
2022/10/11 09:52:47;;;;;;;28.00;17.17;;;;;;;;;;5028110;28;20201;-76
2022/10/11 09:55:28;;;;;;;28.63;18.73;;;;;;;;;;5029130;28;20195;-76
2022/10/11 09:57:54;;;;;;;34.40;19.13;;;;;;;;;;5025656;28;20183;-75
2022/10/11 10:00:26;;;;;;;20.30;16.40;;;;;;;;;;5027507;28;20240;-76
2022/10/11 10:02:53;;;;;;;22.90;16.20;;;;;;;;;;5041461;28;20183;-76
2022/10/11 10:05:20;;;;;;;25.90;18.83;;;;;;;;;;5026811;28;20269;-75
2022/10/11 10:08:07;;;;;;;28.73;19.37;;;;;;;;;;5026568;28;20247;-75
2022/10/11 10:10:32;;;;;;;26.53;16.67;;;;;;;;;;5003816;28;20178;-75
2022/10/11 10:13:00;;;;;;;21.53;16.30;;;;;;;;;;5027574;28;20184;-76
2022/10/11 10:15:28;;;;;;;25.43;16.43;;;;;;;;;;5030711;28;20323;-75
2022/10/11 10:17:53;;;;;;;31.90;17.17;;;;;;;;;;5029185;28;20193;-76
2022/10/11 10:20:24;;;;;;;26.10;16.73;;;;;;;;;;5023079;28;20189;-76
2022/10/11 10:22:50;;;;;;;30.60;17.07;;;;;;;;;;5011694;28;20326;-75
2022/10/11 10:25:30;;;;;;;47.40;18.13;;;;;;;;;;5020435;28;20197;-75
2022/10/11 10:28:00;;;;;;;29.70;17.17;;;;;;;;;;5012098;28;20197;-75
2022/10/11 10:30:26;;;;;;;35.57;15.77;;;;;;;;;;5014906;28;20191;-75
2022/10/11 10:32:58;;;;;;;26.60;17.60;;;;;;;;;;5029015;28;20179;-76
2022/10/11 10:35:24;;;;;;;24.00;17.67;;;;;;;;;;5018779;28;20206;-75
2022/10/11 10:38:12;;;;;;;24.73;16.60;;;;;;;;;;5015990;28;20187;-75
2022/10/11 10:40:40;;;;;;;21.03;15.10;;;;;;;;;;5016498;28;20179;-75
2022/10/11 10:43:10;;;;;;;30.57;18.13;;;;;;;;;;5010025;28;20179;-76
2022/10/11 10:45:48;;;;;;;25.20;17.30;;;;;;;;;;5016336;28;20182;-75
2022/10/11 10:48:19;;;;;;;25.07;18.53;;;;;;;;;;5016447;28;20248;-76
2022/10/11 10:51:11;;;;;;;22.70;15.67;;;;;;;;;;5016960;28;20187;-76
2022/10/11 10:53:40;;;;;;;44.70;18.10;;;;;;;;;;5010029;28;20187;-75
2022/10/11 10:56:08;;;;;;;22.97;16.80;;;;;;;;;;5028022;28;20242;-76
2022/10/11 10:58:45;;;;;;;20.67;15.17;;;;;;;;;;5010414;28;20190;-76
2022/10/11 11:01:21;;;;;;;27.80;16.37;;;;;;;;;;5013987;28;20183;-75
2022/10/11 11:03:51;;;;;;;19.97;14.83;;;;;;;;;;5008097;28;20178;-76
2022/10/11 11:06:26;;;;;;;33.57;22.97;;;;;;;;;;5031228;28;20218;-76
2022/10/11 11:08:55;;;;;;;26.93;16.50;;;;;;;;;;5028610;28;20186;-76
2022/10/11 11:11:30;;;;;;;25.70;17.73;;;;;;;;;;5043210;28;20213;-75
2022/10/11 11:14:14;;;;;;;25.23;14.37;;;;;;;;;;5006934;28;20194;-78
2022/10/11 11:16:39;;;;;;;29.70;17.60;;;;;;;;;;5027169;28;20282;-78
2022/10/11 11:19:25;;;;;;;21.07;15.80;;;;;;;;;;5016028;28;20214;-78
2022/10/11 11:21:57;;;;;;;22.63;15.07;;;;;;;;;;5011170;28;20190;-78
2022/10/11 11:24:25;;;;;;;24.87;15.53;;;;;;;;;;5011841;28;20191;-78
2022/10/11 11:26:50;;;;;;;23.27;15.90;;;;;;;;;;5015703;28;20292;-78
2022/10/11 11:29:21;;;;;;;21.37;15.40;;;;;;;;;;5014576;28;20209;-78
2022/10/11 11:31:52;;;;;;;20.20;14.87;;;;;;;;;;5012985;28;20234;-78
2022/10/11 11:34:27;;;;;;;22.53;15.77;;;;;;;;;;5008552;28;20182;-78
2022/10/11 11:36:57;;;;;;;22.37;15.50;;;;;;;;;;5017340;28;20192;-77
2022/10/11 11:39:35;;;;;;;24.83;17.53;;;;;;;;;;5013676;28;20186;-78
2022/10/11 11:42:04;;;;;;;20.63;15.57;;;;;;;;;;5015084;28;20193;-78
2022/10/11 11:44:30;;;;;;;24.87;16.87;;;;;;;;;;5016418;28;20193;-78
2022/10/11 11:46:56;;;;;;;21.27;15.50;;;;;;;;;;5016252;28;20229;-78
2022/10/11 11:49:29;;;;;;;21.90;15.27;;;;;;;;;;5001733;28;20351;-78
2022/10/11 11:51:58;;;;;;;22.97;15.03;;;;;;;;;;5001594;28;20219;-78
2022/10/11 11:54:29;;;;;;;26.27;16.57;;;;;;;;;;4989859;28;20202;-78
2022/10/11 11:57:07;;;;;;;25.67;15.93;;;;;;;;;;4994777;28;20183;-78
2022/10/11 11:59:35;;;;;;;27.20;15.83;;;;;;;;;;4996966;28;20194;-78
2022/10/11 12:02:00;;;;;;;24.23;14.67;;;;;;;;;;5011457;28;20183;-78
2022/10/11 12:04:35;;;;;;;19.13;13.30;;;;;;;;;;4991336;28;20229;-78
2022/10/11 12:07:09;;;;;;;21.23;13.93;;;;;;;;;;4985863;28;20211;-78
2022/10/11 12:09:35;;;;;;;26.50;15.67;;;;;;;;;;5005829;28;20182;-78
2022/10/11 12:12:03;;;;;;;18.83;14.43;;;;;;;;;;5007758;28;20179;-78
2022/10/11 12:14:34;;;;;;;20.60;14.23;;;;;;;;;;4987458;28;20175;-78
2022/10/11 12:17:11;;;;;;;21.97;16.77;;;;;;;;;;5016677;28;20180;-78
2022/10/11 12:19:38;;;;;;;22.57;15.90;;;;;;;;;;4994779;28;20278;-78
2022/10/11 12:22:23;;;;;;;20.37;14.53;;;;;;;;;;4997383;28;20286;-78
2022/10/11 12:24:56;;;;;;;22.47;16.30;;;;;;;;;;5022864;28;20182;-78
2022/10/11 12:27:39;;;;;;;26.83;17.17;;;;;;;;;;5008178;28;20207;-78
2022/10/11 12:30:24;;;;;;;22.27;16.70;;;;;;;;;;4997942;28;20174;-78
2022/10/11 12:32:50;;;;;;;21.37;14.60;;;;;;;;;;5003453;28;20222;-78
2022/10/11 12:35:31;;;;;;;23.10;18.03;;;;;;;;;;4997875;28;20186;-78
2022/10/11 12:38:15;;;;;;;23.93;16.53;;;;;;;;;;4991367;28;20191;-78
2022/10/11 12:40:41;;;;;;;24.07;17.13;;;;;;;;;;5004326;28;20176;-78
2022/10/11 12:43:10;;;;;;;26.00;16.37;;;;;;;;;;5005347;28;20258;-77
2022/10/11 12:45:36;;;;;;;23.27;15.87;;;;;;;;;;4989154;28;20183;-78
2022/10/11 12:48:08;;;;;;;18.87;14.37;;;;;;;;;;4990657;28;20210;-78
2022/10/11 12:50:53;;;;;;;23.37;14.30;;;;;;;;;;5014942;28;20198;-78
2022/10/11 12:53:33;;;;;;;19.63;14.57;;;;;;;;;;5029607;28;20171;-78
2022/10/11 12:56:27;;;;;;;20.93;14.30;;;;;;;;;;5014159;28;20189;-78
2022/10/11 12:59:00;;;;;;;22.43;15.67;;;;;;;;;;4996433;28;20281;-78
2022/10/11 13:01:26;;;;;;;18.03;13.70;;;;;;;;;;5009395;28;20305;-77
2022/10/11 13:03:58;;;;;;;22.73;15.07;;;;;;;;;;5013510;28;20234;-78
2022/10/11 13:06:28;;;;;;;17.53;14.63;;;;;;;;;;5010723;28;20210;-78
2022/10/11 13:08:55;;;;;;;17.83;13.83;;;;;;;;;;5011132;28;20175;-78
2022/10/11 13:11:23;;;;;;;22.10;13.80;;;;;;;;;;5013895;28;20267;-78
2022/10/11 13:13:56;;;;;;;22.93;14.50;;;;;;;;;;5018923;28;20182;-78
2022/10/11 13:16:41;;;;;;;21.10;15.90;;;;;;;;;;5013350;28;20183;-78
2022/10/11 13:19:11;;;;;;;18.73;14.40;;;;;;;;;;5029115;28;20516;-78
2022/10/11 13:21:37;;;;;;;21.43;14.37;;;;;;;;;;5005791;28;20562;-78
2022/10/11 13:24:09;;;;;;;22.30;14.77;;;;;;;;;;5006782;28;20176;-78
2022/10/11 13:26:34;;;;;;;21.87;15.00;;;;;;;;;;5008068;28;20255;-78
2022/10/11 13:29:00;;;;;;;19.00;15.17;;;;;;;;;;5014706;28;20179;-78
2022/10/11 13:31:25;;;;;;;20.87;14.47;;;;;;;;;;5014327;28;20179;-78
2022/10/11 13:33:53;;;;;;;21.40;15.53;;;;;;;;;;5013190;28;20427;-78
2022/10/11 13:36:19;;;;;;;27.20;16.23;;;;;;;;;;5009563;28;20177;-78
2022/10/11 13:38:58;;;;;;;21.50;15.23;;;;;;;;;;5005964;28;20210;-78
2022/10/11 13:41:27;;;;;;;23.07;13.73;;;;;;;;;;5008490;28;20177;-78
2022/10/11 13:43:54;;;;;;;20.13;12.67;;;;;;;;;;5012333;28;20190;-78
2022/10/11 13:46:24;;;;;;;19.57;13.20;;;;;;;;;;5028695;28;20202;-78
2022/10/11 13:48:59;;;;;;;19.73;14.97;;;;;;;;;;5009066;28;20242;-77
2022/10/11 13:51:32;;;;;;;22.13;14.97;;;;;;;;;;4990916;28;20181;-78
2022/10/11 13:54:02;;;;;;;17.03;12.83;;;;;;;;;;5012685;28;20230;-78
2022/10/11 13:56:29;;;;;;;21.07;13.87;;;;;;;;;;4999316;28;20370;-78
2022/10/11 13:58:55;;;;;;;15.17;13.07;;;;;;;;;;4992736;28;20201;-78
2022/10/11 14:01:42;;;;;;;14.23;12.70;;;;;;;;;;4994975;28;20255;-78
2022/10/11 14:04:09;;;;;;;19.13;13.13;;;;;;;;;;4999730;28;20191;-78
2022/10/11 14:06:46;;;;;;;21.40;14.20;;;;;;;;;;5012787;28;20212;-78
2022/10/11 14:09:23;;;;;;;16.23;12.60;;;;;;;;;;5009566;28;20177;-78
2022/10/11 14:11:49;;;;;;;17.23;12.40;;;;;;;;;;5007423;28;20182;-79
2022/10/11 14:14:32;;;;;;;16.80;12.67;;;;;;;;;;5013925;28;20179;-79
2022/10/11 14:17:04;;;;;;;20.53;13.30;;;;;;;;;;5016848;28;20183;-79
2022/10/11 14:19:29;;;;;;;16.67;13.03;;;;;;;;;;5013760;28;20179;-79
2022/10/11 14:21:54;;;;;;;18.73;12.37;;;;;;;;;;4998667;28;20274;-78
2022/10/11 14:24:20;;;;;;;23.13;12.30;;;;;;;;;;4995402;28;20216;-79
2022/10/11 14:26:49;;;;;;;17.13;12.83;;;;;;;;;;4993796;28;20455;-78
2022/10/11 14:29:15;;;;;;;12.80;10.97;;;;;;;;;;5002349;28;20225;-78